Latest Weather Observations for Stawell

IDV60801

Issued at 8:32 pm EST Sunday 25 June 2017 (issued every 30 minutes, with the page automatically refreshed every 10 minutes)

About weather observations | Map of weather stations | Latest weather observations for VIC | Other Formats
Station Details ID: 079105 Name: STAWELL AERODROME Lat: -37.07 Lon: 142.74 Height: 235.36 m
Data from the previous 72 hours. | See also: Recent months at Stawell
Date/Time
EST
Temp
°C
App
Temp
°C
Dew
Point
°C
Rel
Hum
%
Delta-T
°C
Wind Press
QNH
hPa
Press
MSL
hPa
Rain since
9am
mm
Dir  Spd
km/h
Gust
km/h
Spd
kts
Gust
kts
25/08:30pm 8.7 6.9 7.9 95 0.4 NW 7 9 4 5 1018.7 1019.1 0.2
25/08:00pm 9.2 6.7 8.1 93 0.5 NW 11 15 6 8 1018.4 1018.8 0.2
25/07:30pm 9.7 6.7 7.8 88 0.9 WNW 13 19 7 10 1018.1 1018.5 0.2
25/07:00pm 9.4 7.4 7.3 87 1.0 NW 7 9 4 5 1017.7 1018.0 0.0
25/06:30pm 9.8 7.5 7.4 85 1.2 WNW 9 19 5 10 1017.3 1017.6 0.0
25/06:00pm 10.5 8.0 6.5 76 1.9 WNW 9 13 5 7 1017.1 1017.4 0.0
25/05:30pm 10.7 8.1 6.3 74 2.1 WNW 9 17 5 9 1016.7 1017.0 0.0
25/05:00pm 11.0 7.7 6.4 73 2.2 NW 13 20 7 11 1016.4 1016.7 0.0
25/04:30pm 11.1 8.1 5.8 70 2.5 WNW 11 17 6 9 1016.3 1016.6 0.0
25/04:00pm 11.2 7.3 5.3 67 2.7 WNW 15 24 8 13 1016.2 1016.5 0.0
25/03:30pm 11.3 6.9 5.0 65 2.9 WNW 17 28 9 15 1016.1 1016.4 0.0
25/03:00pm 11.6 7.7 5.3 65 2.9 WNW 15 22 8 12 1016.1 1016.4 0.0
25/02:30pm 12.1 8.3 5.9 66 2.9 W 15 26 8 14 1016.0 1016.3 0.0
25/02:00pm 11.6 7.8 5.9 68 2.7 W 15 26 8 14 1016.1 1016.4 0.0
25/01:30pm 11.8 7.6 5.9 67 2.8 WNW 17 24 9 13 1016.3 1016.6 0.0
25/01:00pm 11.3 7.0 7.0 75 2.1 NW 19 28 10 15 1016.3 1016.6 0.0
25/12:30pm 10.3 7.3 7.5 83 1.4 NW 13 20 7 11 1016.6 1016.9 0.0
25/12:00pm 10.2 7.2 7.6 84 1.3 WNW 13 20 7 11 1017.1 1017.4 0.0
25/11:30am 10.3 6.2 7.9 85 1.2 NW 19 28 10 15 1017.5 1017.8 0.0
25/11:00am 9.6 5.2 7.5 87 1.0 NNW 20 28 11 15 1017.7 1018.0 0.0
25/10:30am 8.4 5.0 7.5 94 0.4 NNW 15 19 8 10 1017.6 1017.9 0.0
25/10:00am 7.9 4.8 7.3 96 0.3 NNW 13 17 7 9 1017.8 1018.1 0.0
25/09:30am 7.5 4.3 6.8 95 0.3 NNW 13 17 7 9 1017.5 1017.8 0.0
25/09:00am 7.1 4.2 6.7 97 0.2 NNW 11 19 6 10 1017.4 1017.7 0.2
25/08:30am 6.7 3.0 6.3 97 0.2 N 15 19 8 10 1017.3 1017.6 0.2
25/08:00am 6.7 4.2 6.6 99 0.0 N 9 13 5 7 1017.3 1017.6 0.2
25/07:30am 6.6 4.1 6.5 99 0.0 N 9 13 5 7 1017.1 1017.4 0.2
25/07:00am 6.5 5.7 6.4 99 0.0 CALM 0 0 0 0 1016.9 1017.2 0.2
25/06:30am 6.7 4.7 6.4 98 0.1 NW 6 11 3 6 1016.8 1017.1 0.2
25/06:00am 6.9 4.8 6.5 97 0.2 NNW 7 13 4 7 1016.7 1017.0 0.0
25/05:30am 7.1 4.5 6.2 94 0.4 NNW 9 11 5 6 1016.7 1017.0 0.0
25/05:00am 7.7 4.2 5.3 85 1.1 NNW 13 17 7 9 1016.5 1016.8 0.0
25/04:30am 7.4 4.3 5.4 87 0.9 NW 11 17 6 9 1016.6 1016.9 0.0
25/04:00am 7.5 3.6 5.3 86 1.0 NW 15 19 8 10 1016.7 1017.0 0.0
25/03:30am 7.5 3.9 5.1 85 1.1 NW 13 17 7 9 1016.9 1017.2 0.0
25/03:00am 7.1 4.7 5.3 88 0.8 NNE 7 11 4 6 1017.1 1017.4 0.0
25/02:30am 7.4 5.0 5.4 87 0.9 NNE 7 11 4 6 1017.2 1017.5 0.0
25/02:00am 7.5 5.3 5.1 85 1.1 N 6 11 3 6 1017.1 1017.4 0.0
25/01:30am 7.8 5.4 5.3 84 1.1 N 7 11 4 6 1017.1 1017.4 0.0
25/01:00am 7.6 5.4 5.2 85 1.1 NNW 6 7 3 4 1017.4 1017.7 0.0
25/12:30am 7.8 5.3 4.9 82 1.3 N 7 9 4 5 1017.5 1017.8 0.0
25/12:00am 8.0 4.8 4.9 81 1.4 N 11 15 6 8 1017.6 1017.9 0.0
 
Date/Time
EST
Temp
°C
App
Temp
°C
Dew
Point
°C
Rel
Hum
%
Delta-T
°C
Wind Press
QNH
hPa
Press
MSL
hPa
Rain since
9am
mm
Dir  Spd
km/h
Gust
km/h
Spd
kts
Gust
kts
24/11:30pm 7.8 4.9 4.7 81 1.4 N 9 13 5 7 1017.6 1017.9 0.0
24/11:00pm 7.3 6.2 5.3 87 0.9 CALM 0 2 0 1 1017.6 1017.9 0.0
24/10:30pm 7.3 5.1 5.3 87 0.9 NW 6 7 3 4 1017.9 1018.2 0.0
24/10:00pm 7.6 5.9 5.7 88 0.9 N 4 7 2 4 1017.9 1018.2 0.0
24/09:30pm 7.5 6.4 5.1 85 1.1 CALM 0 0 0 0 1017.9 1018.2 0.0
24/09:00pm 6.9 4.5 5.1 88 0.8 NNE 7 9 4 5 1017.9 1018.2 0.0
24/08:30pm 7.5 6.3 4.6 82 1.3 CALM 0 0 0 0 1018.1 1018.5 0.0
24/08:00pm 7.7 5.4 4.7 81 1.3 ESE 6 7 3 4 1018.1 1018.5 0.0
24/07:30pm 8.0 5.6 4.2 77 1.7 S 6 7 3 4 1018.1 1018.5 0.0
24/07:00pm 8.1 6.3 3.4 72 2.0 WNW 2 6 1 3 1018.0 1018.3 0.0
24/06:30pm 8.3 5.5 3.2 70 2.2 WSW 7 9 4 5 1018.0 1018.3 0.0
24/06:00pm 8.3 6.0 3.0 69 2.3 WSW 4 11 2 6 1017.8 1018.1 0.0
24/05:30pm 8.5 6.7 3.4 70 2.2 SW 2 6 1 3 1018.0 1018.3 0.0
24/05:00pm 9.2 6.0 3.0 65 2.7 WSW 9 15 5 8 1017.9 1018.2 0.0
24/04:30pm 9.1 6.5 3.3 67 2.5 SW 6 7 3 4 1017.8 1018.1 0.0
24/04:00pm 9.3 6.7 3.3 66 2.6 SSW 6 9 3 5 1017.7 1018.0 0.0
24/03:30pm 11.3 8.1 3.1 57 3.6 WSW 9 15 5 8 1017.7 1018.0 0.0
24/03:00pm 9.4 6.2 2.9 64 2.8 WNW 9 15 5 8 1017.7 1018.0 0.0
24/02:30pm 9.8 5.3 2.2 59 3.3 WSW 15 22 8 12 1017.7 1018.0 0.0
24/02:00pm 10.2 6.9 2.6 59 3.3 SW 9 19 5 10 1017.8 1018.1 0.0
24/01:30pm 10.2 5.3 2.3 58 3.4 WSW 17 32 9 17 1017.9 1018.2 0.0
24/01:00pm 9.2 5.1 2.3 62 2.9 W 13 24 7 13 1018.3 1018.7 0.0
24/12:30pm 9.8 6.5 2.4 60 3.2 WSW 9 19 5 10 1018.8 1019.2 0.0
24/12:00pm 9.7 6.3 1.8 58 3.3 WSW 9 13 5 7 1019.2 1019.6 0.0
24/11:30am 9.6 6.2 2.0 59 3.2 SW 9 15 5 8 1019.5 1019.9 0.0
24/11:00am 9.4 6.4 2.0 60 3.1 WSW 7 15 4 8 1019.8 1020.2 0.0
24/10:30am 8.8 4.7 2.2 63 2.8 SW 13 24 7 13 1020.0 1020.3 0.0
24/10:00am 8.5 5.7 3.4 70 2.2 WSW 7 11 4 6 1019.6 1020.0 0.0
24/09:30am 8.0 5.6 4.2 77 1.7 SW 6 9 3 5 1019.4 1019.8 0.0
24/09:00am 7.8 5.1 3.7 75 1.8 SSW 7 9 4 5 1019.2 1019.6 0.0
24/08:30am 7.2 4.6 4.2 81 1.3 S 7 9 4 5 1019.0 1019.4 0.0
24/08:00am 7.3 4.6 3.9 79 1.5 S 7 11 4 6 1018.8 1019.2 0.0
24/07:30am 7.4 4.4 4.0 79 1.5 SSW 9 13 5 7 1018.5 1018.9 0.0
24/07:00am 7.5 4.6 4.5 81 1.3 S 9 15 5 8 1018.1 1018.5 0.0
24/06:30am 7.6 3.9 4.6 81 1.3 S 13 19 7 10 1017.8 1018.1 0.0
24/06:00am 7.8 4.1 4.6 80 1.4 S 13 22 7 12 1017.5 1017.8 0.0
24/05:30am 7.4 4.1 4.7 83 1.2 S 11 17 6 9 1017.2 1017.5 0.0
24/05:00am 7.7 4.2 5.3 85 1.1 SSW 13 20 7 11 1017.1 1017.4 0.0
24/04:30am 7.9 3.1 5.7 86 1.0 S 20 30 11 16 1016.9 1017.2 0.0
24/04:00am 7.8 3.3 5.9 88 0.9 S 19 26 10 14 1016.6 1016.9 0.0
24/03:30am 8.1 3.5 6.6 90 0.7 S 20 30 11 16 1016.5 1016.8 0.0
24/03:00am 8.4 3.6 7.2 92 0.6 S 22 32 12 17 1016.4 1016.7 0.0
24/02:30am 6.4 3.3 5.5 94 0.4 ESE 11 13 6 7 1016.2 1016.5 0.0
24/02:00am 6.2 3.5 5.5 95 0.3 SSE 9 11 5 6 1015.9 1016.2 0.0
24/01:30am 6.8 5.9 5.9 94 0.4 CALM 0 0 0 0 1015.9 1016.2 0.0
24/01:00am 7.6 6.7 6.2 91 0.6 CALM 0 6 0 3 1015.9 1016.2 0.0
24/12:30am 7.6 6.3 6.2 91 0.6 SW 2 9 1 5 1016.0 1016.3 0.0
24/12:00am 8.7 7.9 6.7 87 0.9 CALM 0 0 0 0 1016.1 1016.4 0.0
 
Date/Time
EST
Temp
°C
App
Temp
°C
Dew
Point
°C
Rel
Hum
%
Delta-T
°C
Wind Press
QNH
hPa
Press
MSL
hPa
Rain since
9am
mm
Dir  Spd
km/h
Gust
km/h
Spd
kts
Gust
kts
23/11:30pm 9.9 8.0 6.8 81 1.5 SW 6 13 3 7 1016.0 1016.3 0.0
23/11:00pm 10.5 7.0 7.4 81 1.5 W 15 24 8 13 1016.0 1016.3 0.0
23/10:30pm 10.7 8.4 7.4 80 1.6 W 9 20 5 11 1016.0 1016.3 0.0
23/10:00pm 10.5 8.4 6.6 77 1.9 W 7 13 4 7 1015.9 1016.2 0.0
23/09:30pm 10.4 8.3 6.5 77 1.9 WNW 7 15 4 8 1015.9 1016.2 0.0
23/09:00pm 11.0 8.5 6.7 75 2.1 W 9 15 5 8 1015.7 1016.0 0.0
23/08:30pm 11.6 8.0 6.7 72 2.4 W 15 26 8 14 1015.3 1015.7 0.0
23/08:00pm 12.3 8.8 7.2 71 2.5 W 15 32 8 17 1015.3 1015.7 0.0
23/07:30pm 11.7 8.9 6.8 72 2.4 W 11 19 6 10 1015.1 1015.5 0.0
23/07:00pm 11.4 8.7 7.3 76 2.0 NW 11 17 6 9 1014.9 1015.3 0.0
23/06:30pm 11.8 8.7 7.1 73 2.3 NNW 13 17 7 9 1014.8 1015.2 0.0
23/06:00pm 12.0 8.8 6.9 71 2.5 NNW 13 17 7 9 1014.6 1015.0 0.0
23/05:30pm 11.9 9.1 6.8 71 2.5 N 11 15 6 8 1014.5 1014.9 0.0
23/05:00pm 12.1 10.1 7.0 71 2.5 N 7 11 4 6 1014.6 1015.0 0.0
23/04:30pm 12.5 10.1 7.2 70 2.6 NNW 9 13 5 7 1014.7 1015.1 0.0
23/04:00pm 12.8 10.9 7.5 70 2.6 NW 7 9 4 5 1014.6 1015.0 0.0
23/03:30pm 12.4 10.0 6.9 69 2.7 N 9 13 5 7 1014.9 1015.3 0.0
23/03:00pm 12.1 9.7 6.8 70 2.6 NNW 9 13 5 7 1014.9 1015.3 0.0
23/02:30pm 11.9 9.0 6.6 70 2.5 NW 11 15 6 8 1015.0 1015.4 0.0
23/02:00pm 10.9 8.3 6.1 72 2.3 N 9 13 5 7 1015.1 1015.5 0.0
23/01:30pm 10.7 7.0 6.3 74 2.1 NNW 15 19 8 10 1015.5 1015.8 0.0
23/01:00pm 10.5 7.1 5.9 73 2.2 NNW 13 19 7 10 1016.0 1016.3 0.0
23/12:30pm 9.3 6.2 5.7 78 1.7 NNW 11 20 6 11 1016.3 1016.6 0.0
23/12:00pm 8.2 4.8 5.8 85 1.1 NNW 13 17 7 9 1017.1 1017.4 0.0
23/11:30am 7.6 4.6 5.9 89 0.8 NNE 11 17 6 9 1017.3 1017.6 0.0
23/11:00am 6.6 4.0 6.0 96 0.3 NNE 9 15 5 8 1018.2 1018.6 0.0
23/10:30am 5.9 2.5 5.8 99 0.0 N 13 17 7 9 1018.5 1018.9 0.0
23/10:00am 5.6 2.1 5.5 99 0.0 N 13 17 7 9 1018.6 1019.0 0.0
23/09:30am 5.3 1.7 5.2 99 0.0 N 13 17 7 9 1018.9 1019.3 0.0
23/09:00am 5.2 2.4 5.1 99 0.0 N 9 17 5 9 1018.9 1019.3 0.2
23/08:30am 5.0 2.1 4.9 99 0.0 N 9 13 5 7 1018.9 1019.3 0.2
23/08:00am 4.8 2.3 4.7 99 0.0 NE 7 11 4 6 1018.9 1019.3 0.2
23/07:30am 4.6 2.1 4.5 99 0.0 NNE 7 9 4 5 1018.8 1019.2 0.0
23/07:00am 5.1 2.6 5.0 99 0.0 N 7 13 4 7 1018.8 1019.2 0.0
23/06:30am 5.5 2.8 5.4 99 0.0 N 9 13 5 7 1018.8 1019.2 0.0
23/06:00am 6.0 3.9 5.9 99 0.0 N 6 9 3 5 1018.7 1019.1 0.0
23/05:30am 6.2 3.6 6.1 99 0.0 N 9 11 5 6 1018.8 1019.2 0.0
23/05:00am 6.5 3.6 6.4 99 0.0 N 11 17 6 9 1018.9 1019.3 0.0
23/04:30am 6.5 4.5 6.4 99 0.0 NNW 6 9 3 5 1019.1 1019.5 0.0
23/04:00am 6.5 4.3 6.4 99 0.0 N 7 11 4 6 1019.4 1019.8 0.0
23/03:30am 6.5 4.5 6.4 99 0.0 N 6 9 3 5 1019.8 1020.2 0.0
23/03:00am 6.4 4.4 6.3 99 0.0 NNW 6 11 3 6 1020.2 1020.5 0.0
23/02:30am 6.5 4.9 6.2 98 0.1 NNW 4 7 2 4 1020.7 1021.0 0.0
23/02:00am 6.7 4.7 6.3 97 0.2 N 6 9 3 5 1020.6 1020.9 0.0
23/01:30am 7.1 5.0 6.5 96 0.3 NW 7 11 4 6 1020.7 1021.0 0.0
23/01:00am 7.5 5.1 6.8 95 0.3 N 9 13 5 7 1020.9 1021.2 0.0
23/12:30am 7.8 5.4 7.1 95 0.3 NNE 9 15 5 8 1021.2 1021.5 0.0
23/12:00am 8.2 6.2 7.1 93 0.5 N 7 13 4 7 1021.9 1022.3 0.0
 
Date/Time
EST
Temp
°C
App
Temp
°C
Dew
Point
°C
Rel
Hum
%
Delta-T
°C
Wind Press
QNH
hPa
Press
MSL
hPa
Rain since
9am
mm
Dir  Spd
km/h
Gust
km/h
Spd
kts
Gust
kts
22/11:30pm 8.5 5.8 7.3 92 0.6 N 11 17 6 9 1022.1 1022.5 0.0
22/11:00pm 8.5 6.2 7.3 92 0.6 N 9 13 5 7 1022.3 1022.7 0.0
22/10:30pm 8.7 6.7 7.2 90 0.7 NNE 7 11 4 6 1022.7 1023.1 0.0
22/10:00pm 9.2 6.9 7.3 88 0.9 NNE 9 13 5 7 1022.8 1023.2 0.0
22/09:30pm 9.7 7.0 7.5 86 1.1 NNE 11 15 6 8 1023.0 1023.4 0.0
22/09:00pm 10.1 7.1 7.5 84 1.3 N 13 20 7 11 1023.2 1023.6 0.0

Other Formats:

Comma delimited format used in spreadsheet applications
http://www.bom.gov.au/fwo/IDV60801/IDV60801.94836.axf

JavaScript Object Notation format (JSON) in row-major order
http://www.bom.gov.au/fwo/IDV60801/IDV60801.94836.json